Time;durP1;ratioP1;P1;durP2;ratioP2;P2;SDS_P1;SDS_P2;PMS_P1;PMS_P2;Temp;Humidity;BMP_temperature;BMP_pressure;BME280_temperature;BME280_humidity;BME280_pressure;Samples;Min_cycle;Max_cycle;Signal;HPM_P1;HPM_P2
2022/10/07 00:00:51;;;;;;;0.10;0.10;;;;;;;8.25;100.00;102710.72;4987761;28;20038;-73
2022/10/07 00:03:17;;;;;;;0.20;0.20;;;;;;;8.23;100.00;102699.22;4985884;28;20053;-73
2022/10/07 00:05:42;;;;;;;0.10;0.10;;;;;;;8.23;100.00;102693.88;4988311;28;20034;-73
2022/10/07 00:08:08;;;;;;;0.13;0.13;;;;;;;8.20;100.00;102704.72;4993575;28;20044;-73
2022/10/07 00:10:40;;;;;;;0.10;0.10;;;;;;;8.16;100.00;102708.44;4990327;28;20045;-73
2022/10/07 00:13:07;;;;;;;0.10;0.10;;;;;;;8.07;100.00;102693.59;4989642;28;20029;-73
2022/10/07 00:15:32;;;;;;;0.10;0.10;;;;;;;8.03;100.00;102702.66;4988612;28;20109;-73
2022/10/07 00:17:58;;;;;;;0.20;0.20;;;;;;;7.85;100.00;102679.25;4996378;28;20120;-73
2022/10/07 00:20:23;;;;;;;0.10;0.10;;;;;;;7.98;100.00;102687.69;4990600;28;20080;-72
2022/10/07 00:22:48;;;;;;;0.10;0.10;;;;;;;7.95;100.00;102686.00;4989703;28;20034;-72
2022/10/07 00:25:13;;;;;;;0.10;0.10;;;;;;;8.05;100.00;102689.22;4988571;28;20392;-73
2022/10/07 00:27:39;;;;;;;0.20;0.20;;;;;;;8.08;100.00;102686.44;4988504;28;20480;-73
2022/10/07 00:30:04;;;;;;;0.20;0.20;;;;;;;8.15;100.00;102690.63;4989828;28;20088;-73
2022/10/07 00:32:30;;;;;;;0.10;0.10;;;;;;;8.21;100.00;102692.19;4986857;28;20460;-73
2022/10/07 00:34:55;;;;;;;0.10;0.10;;;;;;;8.11;100.00;102678.28;4985309;28;20460;-73
2022/10/07 00:37:20;;;;;;;0.10;0.10;;;;;;;8.18;100.00;102678.91;4989618;28;20472;-73
2022/10/07 00:39:46;;;;;;;0.08;0.08;;;;;;;8.11;100.00;102665.78;4990551;28;20290;-72
2022/10/07 00:42:12;;;;;;;0.10;0.10;;;;;;;8.06;100.00;102649.03;4996276;28;20030;-72
2022/10/07 00:44:40;;;;;;;0.10;0.10;;;;;;;8.23;100.00;102668.91;4985782;28;20110;-73
2022/10/07 00:47:24;;;;;;;0.13;0.10;;;;;;;8.20;100.00;102667.25;4990492;28;20026;-73
2022/10/07 00:50:02;;;;;;;0.10;0.10;;;;;;;8.19;100.00;102662.81;4982706;28;20109;-73
2022/10/07 00:52:30;;;;;;;0.10;0.10;;;;;;;8.05;100.00;102655.31;4969000;28;20030;-73
2022/10/07 00:54:57;;;;;;;0.10;0.10;;;;;;;8.10;100.00;102664.03;4972557;28;20057;-73
2022/10/07 00:57:24;;;;;;;0.13;0.13;;;;;;;8.04;100.00;102652.69;4979832;28;20030;-73
2022/10/07 00:59:50;;;;;;;0.10;0.10;;;;;;;7.98;100.00;102659.16;4989966;28;20022;-73
2022/10/07 01:02:15;;;;;;;0.10;0.10;;;;;;;7.93;100.00;102658.44;4981078;28;20613;-73
2022/10/07 01:04:41;;;;;;;0.10;0.10;;;;;;;7.91;100.00;102650.50;4973186;28;20026;-74
2022/10/07 01:07:07;;;;;;;0.10;0.10;;;;;;;7.91;100.00;102636.25;4976772;28;20030;-73
2022/10/07 01:09:32;;;;;;;0.10;0.10;;;;;;;7.80;100.00;102617.94;4972209;28;20029;-73
2022/10/07 01:12:12;;;;;;;0.10;0.10;;;;;;;7.99;100.00;102644.84;4976077;28;20133;-73
2022/10/07 01:14:47;;;;;;;0.13;0.13;;;;;;;8.02;100.00;102646.53;4977800;28;20061;-73
2022/10/07 01:17:34;;;;;;;0.10;0.10;;;;;;;8.02;100.00;102638.50;4972947;28;20034;-73
2022/10/07 01:20:30;;;;;;;0.17;0.17;;;;;;;8.03;100.00;102640.25;4975713;28;20030;-73
2022/10/07 01:23:24;;;;;;;0.10;0.10;;;;;;;7.93;100.00;102627.25;4982339;28;20056;-73
2022/10/07 01:26:14;;;;;;;0.20;0.20;;;;;;;8.02;100.00;102627.81;4963713;28;20065;-73
2022/10/07 01:28:51;;;;;;;0.10;0.10;;;;;;;7.82;100.00;102626.75;4980217;28;20487;-73
2022/10/07 01:31:20;;;;;;;0.10;0.10;;;;;;;7.46;100.00;102598.66;4977905;28;20038;-72
2022/10/07 01:33:45;;;;;;;0.10;0.10;;;;;;;7.45;100.00;102618.31;4975894;28;20178;-73
2022/10/07 01:36:16;;;;;;;0.20;0.20;;;;;;;7.12;100.00;102582.97;4980453;28;20038;-72
2022/10/07 01:38:45;;;;;;;0.10;0.10;;;;;;;7.27;100.00;102598.44;4977527;28;20037;-73
2022/10/07 01:41:15;;;;;;;0.10;0.10;;;;;;;7.27;100.00;102610.97;4960814;28;20026;-73
2022/10/07 01:43:41;;;;;;;0.35;0.10;;;;;;;7.23;100.00;102591.47;4983982;28;20027;-72
2022/10/07 01:46:08;;;;;;;0.10;0.10;;;;;;;7.21;100.00;102593.31;4988846;28;20048;-72
2022/10/07 01:48:33;;;;;;;0.20;0.20;;;;;;;7.16;100.00;102585.47;4989167;28;20034;-73
2022/10/07 01:51:01;;;;;;;0.10;0.10;;;;;;;7.16;100.00;102585.47;4985210;28;20084;-72
2022/10/07 01:53:38;;;;;;;0.10;0.10;;;;;;;7.26;100.00;102587.84;4984230;28;20092;-73
2022/10/07 01:56:28;;;;;;;0.10;0.10;;;;;;;7.26;100.00;102574.47;5005049;28;20041;-73
2022/10/07 01:59:28;;;;;;;0.10;0.10;;;;;;;7.34;100.00;102573.25;4979895;28;20034;-73
2022/10/07 02:02:33;;;;;;;0.17;0.17;;;;;;;7.32;100.00;102563.53;4976296;28;20042;-73
2022/10/07 02:05:26;;;;;;;0.10;0.10;;;;;;;7.27;100.00;102561.06;4989076;28;20022;-73
2022/10/07 02:08:29;;;;;;;0.10;0.10;;;;;;;7.31;100.00;102568.03;4990360;28;20049;-73
2022/10/07 02:11:14;;;;;;;0.10;0.10;;;;;;;7.26;100.00;102558.44;4973877;28;20551;-73
2022/10/07 02:14:07;;;;;;;0.10;0.10;;;;;;;7.23;100.00;102546.06;4956805;28;20023;-72
2022/10/07 02:16:36;;;;;;;0.10;0.10;;;;;;;7.07;100.00;102558.22;4973286;28;20073;-72
2022/10/07 02:19:05;;;;;;;0.20;0.20;;;;;;;7.07;100.00;102552.88;4977117;28;20477;-72
2022/10/07 02:21:32;;;;;;;0.20;0.20;;;;;;;7.07;100.00;102547.53;4974387;28;20390;-73
2022/10/07 02:23:58;;;;;;;0.10;0.10;;;;;;;6.79;100.00;102513.81;4972748;28;20428;-73
2022/10/07 02:26:25;;;;;;;0.10;0.10;;;;;;;7.03;100.00;102538.75;4978574;28;20126;-72
2022/10/07 02:28:52;;;;;;;0.10;0.10;;;;;;;7.09;100.00;102551.03;4962697;28;20030;-73
2022/10/07 02:31:20;;;;;;;0.10;0.10;;;;;;;7.13;100.00;102542.00;4977315;28;20022;-73
2022/10/07 02:33:46;;;;;;;0.15;0.15;;;;;;;7.09;100.00;102535.88;4977647;28;20126;-73
2022/10/07 02:36:21;;;;;;;0.10;0.10;;;;;;;7.05;100.00;102534.22;4976719;28;20074;-72
2022/10/07 02:38:46;;;;;;;0.10;0.10;;;;;;;6.78;100.00;102510.25;4979332;28;20038;-72
2022/10/07 02:41:33;;;;;;;0.10;0.10;;;;;;;6.85;100.00;102532.28;4980680;28;20507;-72
2022/10/07 02:44:08;;;;;;;0.10;0.10;;;;;;;6.87;100.00;102525.94;4977492;28;20022;-73
2022/10/07 02:46:37;;;;;;;0.10;0.10;;;;;;;6.90;100.00;102528.53;4988123;28;20030;-73
2022/10/07 02:49:09;;;;;;;0.10;0.10;;;;;;;7.05;100.00;102524.44;4990773;28;20025;-73
2022/10/07 02:51:42;;;;;;;0.13;0.13;;;;;;;7.05;100.00;102520.88;4980761;28;20042;-73
2022/10/07 02:54:07;;;;;;;0.10;0.10;;;;;;;7.11;100.00;102515.31;4986665;28;20065;-72
2022/10/07 02:56:36;;;;;;;0.10;0.10;;;;;;;7.13;100.00;102521.47;4984025;28;20034;-73
2022/10/07 02:59:04;;;;;;;0.10;0.10;;;;;;;7.15;100.00;102514.28;4971042;28;21034;-73
2022/10/07 03:01:33;;;;;;;0.20;0.20;;;;;;;7.14;100.00;102519.69;4987636;28;20384;-73
2022/10/07 03:03:58;;;;;;;0.20;0.20;;;;;;;7.12;100.00;102510.88;4986648;28;20451;-73
2022/10/07 03:06:24;;;;;;;0.20;0.20;;;;;;;7.06;100.00;102495.91;4986111;28;20419;-73
2022/10/07 03:08:50;;;;;;;0.10;0.10;;;;;;;6.99;100.00;102499.75;4988940;28;20435;-72
2022/10/07 03:11:15;;;;;;;0.20;0.20;;;;;;;7.01;100.00;102500.56;4984904;28;20476;-73
2022/10/07 03:13:40;;;;;;;0.10;0.10;;;;;;;6.78;100.00;102488.88;4985586;28;20035;-73
2022/10/07 03:16:06;;;;;;;0.20;0.20;;;;;;;6.82;100.00;102482.50;4989988;28;20025;-72
2022/10/07 03:18:31;;;;;;;0.20;0.20;;;;;;;6.92;100.00;102480.38;4992151;28;20033;-72
2022/10/07 03:20:59;;;;;;;0.10;0.10;;;;;;;7.02;100.00;102496.94;4986067;28;20034;-72
2022/10/07 03:23:25;;;;;;;0.15;0.15;;;;;;;7.00;100.00;102493.50;4987677;28;20030;-73
2022/10/07 03:25:52;;;;;;;0.13;0.13;;;;;;;6.94;100.00;102493.69;4994662;28;20033;-73
2022/10/07 03:28:19;;;;;;;0.10;0.10;;;;;;;6.86;100.00;102484.16;4987181;28;20053;-73
2022/10/07 03:30:46;;;;;;;0.20;0.20;;;;;;;6.83;100.00;102483.41;4989295;28;20126;-72
2022/10/07 03:33:12;;;;;;;0.10;0.10;;;;;;;6.84;100.00;102485.16;4992216;28;20113;-73
2022/10/07 03:35:37;;;;;;;0.10;0.10;;;;;;;6.69;100.00;102479.41;4995026;28;20121;-73
2022/10/07 03:38:05;;;;;;;0.20;0.20;;;;;;;6.78;100.00;102474.69;4995270;28;20066;-73
2022/10/07 03:40:31;;;;;;;0.10;0.10;;;;;;;6.76;100.00;102456.03;4995206;28;20034;-72
2022/10/07 03:42:56;;;;;;;0.17;0.17;;;;;;;6.74;100.00;102469.44;4982724;28;20831;-72
2022/10/07 03:45:21;;;;;;;0.20;0.20;;;;;;;6.64;100.00;102464.50;4980927;28;20026;-72
2022/10/07 03:47:46;;;;;;;0.15;0.15;;;;;;;6.64;100.00;102462.69;4984009;28;20034;-72
2022/10/07 03:50:12;;;;;;;0.10;0.10;;;;;;;6.51;100.00;102461.38;4975392;28;20049;-72
2022/10/07 03:52:37;;;;;;;1.00;0.20;;;;;;;6.45;100.00;102433.13;4972272;28;20751;-72
2022/10/07 03:55:03;;;;;;;0.10;0.10;;;;;;;6.49;100.00;102455.22;4977414;28;20815;-72
2022/10/07 04:00:12;;;;;;;0.20;0.20;;;;;;;6.49;100.00;102463.22;4974960;28;20089;-73
2022/10/07 04:02:37;;;;;;;0.22;0.22;;;;;;;6.26;100.00;102422.22;4972719;28;20370;-72
2022/10/07 04:05:03;;;;;;;0.13;0.13;;;;;;;6.52;100.00;102447.97;4972718;28;20022;-72
2022/10/07 04:07:28;;;;;;;0.10;0.10;;;;;;;6.53;100.00;102448.84;4974702;28;20058;-73
2022/10/07 04:09:53;;;;;;;0.20;0.20;;;;;;;6.52;100.00;102436.44;4973457;28;20682;-73
2022/10/07 04:12:19;;;;;;;0.20;0.20;;;;;;;6.50;100.00;102448.97;4972588;28;20037;-72
2022/10/07 04:14:44;;;;;;;0.10;0.10;;;;;;;6.57;100.00;102446.03;4972246;28;20046;-72
2022/10/07 04:17:10;;;;;;;0.20;0.20;;;;;;;6.66;100.00;102457.31;4974547;28;20120;-72
2022/10/07 04:19:35;;;;;;;0.20;0.20;;;;;;;6.66;100.00;102455.50;4971587;28;20749;-72
2022/10/07 04:22:00;;;;;;;0.20;0.20;;;;;;;6.58;100.00;102446.91;4974380;28;20049;-73
2022/10/07 04:24:26;;;;;;;0.20;0.20;;;;;;;6.43;100.00;102441.16;4970404;28;20030;-72
2022/10/07 04:26:51;;;;;;;0.30;0.30;;;;;;;6.40;100.00;102437.75;4970405;28;20030;-72
2022/10/07 04:29:16;;;;;;;0.20;0.20;;;;;;;6.49;100.00;102437.41;4986794;28;20031;-72
2022/10/07 04:31:42;;;;;;;0.10;0.10;;;;;;;6.66;100.00;102449.28;4976739;28;20026;-72
2022/10/07 04:34:07;;;;;;;0.17;0.17;;;;;;;6.72;100.00;102433.06;4972610;28;20563;-72
2022/10/07 04:36:32;;;;;;;0.20;0.20;;;;;;;6.71;100.00;102450.88;4975298;28;20030;-72
2022/10/07 04:38:58;;;;;;;0.10;0.10;;;;;;;6.60;100.00;102447.72;4977378;28;20113;-72
2022/10/07 04:41:23;;;;;;;0.25;0.25;;;;;;;6.70;100.00;102448.28;4972015;28;20049;-72
2022/10/07 04:43:49;;;;;;;0.15;0.15;;;;;;;6.81;100.00;102446.06;4972060;28;20033;-72
2022/10/07 04:46:15;;;;;;;0.52;0.15;;;;;;;6.80;100.00;102446.13;4979101;28;20038;-72
2022/10/07 04:48:46;;;;;;;0.20;0.20;;;;;;;6.43;100.00;102406.47;4975361;28;20024;-72
2022/10/07 04:51:12;;;;;;;0.20;0.20;;;;;;;6.45;100.00;102446.47;4975277;28;20049;-72
2022/10/07 04:53:38;;;;;;;0.25;0.25;;;;;;;6.54;100.00;102448.78;4973215;28;20026;-72
2022/10/07 04:56:05;;;;;;;0.10;0.10;;;;;;;6.35;100.00;102408.56;4961064;28;20030;-73
2022/10/07 04:58:30;;;;;;;0.10;0.10;;;;;;;6.55;100.00;102444.34;4978193;28;20030;-73
2022/10/07 05:00:57;;;;;;;0.20;0.20;;;;;;;6.29;100.00;102412.28;4978067;28;20089;-73
2022/10/07 05:03:24;;;;;;;0.20;0.20;;;;;;;6.42;100.00;102441.22;4980410;28;20122;-73
2022/10/07 05:05:52;;;;;;;0.20;0.20;;;;;;;6.41;100.00;102443.00;4975869;28;20034;-73
2022/10/07 05:08:18;;;;;;;0.20;0.20;;;;;;;6.30;100.00;102431.84;4964221;28;20145;-73
2022/10/07 05:10:44;;;;;;;0.10;0.10;;;;;;;6.22;100.00;102423.22;4978776;28;20041;-73
2022/10/07 05:13:12;;;;;;;0.20;0.20;;;;;;;6.10;100.00;102420.03;4979715;28;20034;-73
2022/10/07 05:15:47;;;;;;;0.17;0.17;;;;;;;6.02;100.00;102426.56;4978008;28;20035;-73
2022/10/07 05:18:12;;;;;;;0.10;0.10;;;;;;;5.91;100.00;102397.56;4975058;28;20061;-73
2022/10/07 05:20:39;;;;;;;0.10;0.10;;;;;;;6.09;100.00;102415.63;4982266;28;20161;-73
2022/10/07 05:23:04;;;;;;;0.20;0.20;;;;;;;5.93;100.00;102401.03;4978137;28;20030;-73
2022/10/07 05:25:30;;;;;;;0.30;0.30;;;;;;;6.15;100.00;102407.44;4977693;28;20712;-72
2022/10/07 05:27:55;;;;;;;0.20;0.20;;;;;;;6.03;100.00;102399.88;4981330;28;20125;-72
2022/10/07 05:30:20;;;;;;;0.10;0.10;;;;;;;5.96;100.00;102407.13;4977480;28;20081;-74
2022/10/07 05:32:46;;;;;;;0.20;0.20;;;;;;;6.24;100.00;102400.06;4980598;28;20031;-71
2022/10/07 05:35:11;;;;;;;0.20;0.20;;;;;;;6.15;100.00;102409.25;4975445;28;20034;-72
2022/10/07 05:37:36;;;;;;;0.10;0.10;;;;;;;6.18;100.00;102413.59;4978199;28;20497;-72
2022/10/07 05:40:02;;;;;;;0.20;0.20;;;;;;;6.21;100.00;102394.81;4981358;28;20588;-72
2022/10/07 05:42:27;;;;;;;0.20;0.20;;;;;;;6.19;100.00;102404.66;4978894;28;20121;-72
2022/10/07 05:44:53;;;;;;;0.20;0.20;;;;;;;6.18;100.00;102390.47;4978749;28;20468;-71
2022/10/07 05:47:19;;;;;;;0.10;0.10;;;;;;;6.21;100.00;102410.81;4979181;28;20109;-71
2022/10/07 05:49:44;;;;;;;0.10;0.10;;;;;;;6.19;100.00;102400.22;4978520;28;20034;-72
2022/10/07 05:52:09;;;;;;;0.20;0.20;;;;;;;6.32;100.00;102408.66;4979109;28;20038;-72
2022/10/07 05:54:35;;;;;;;0.30;0.30;;;;;;;6.48;100.00;102409.00;4987423;28;20041;-72
2022/10/07 05:57:00;;;;;;;0.10;0.10;;;;;;;6.48;100.00;102409.00;4982173;28;20022;-73
2022/10/07 05:59:25;;;;;;;0.10;0.10;;;;;;;6.44;100.00;102399.34;4980968;28;20084;-73
2022/10/07 06:01:51;;;;;;;0.20;0.20;;;;;;;6.26;100.00;102374.19;4981001;28;20026;-73
2022/10/07 06:04:18;;;;;;;0.20;0.20;;;;;;;6.59;100.00;102393.47;4980561;28;20046;-73
2022/10/07 06:06:43;;;;;;;0.20;0.20;;;;;;;6.57;100.00;102394.47;4980832;28;20495;-73
2022/10/07 06:13:06;;;;;;;0.13;0.13;;;;;;;6.36;100.00;102378.25;4982115;28;20113;-73
2022/10/07 06:14:48;;;;;;;0.13;0.13;;;;;;;6.56;100.00;102393.56;4975433;28;20385;-73
2022/10/07 06:17:13;;;;;;;0.22;0.22;;;;;;;6.56;100.00;102392.72;4979341;28;20038;-73
2022/10/07 06:19:39;;;;;;;0.17;0.17;;;;;;;6.57;100.00;102384.63;4979867;28;20530;-72
2022/10/07 06:22:04;;;;;;;0.20;0.20;;;;;;;6.69;100.00;102390.47;4980605;28;20583;-73
2022/10/07 06:24:32;;;;;;;0.15;0.15;;;;;;;6.69;100.00;102398.47;4978085;28;20078;-73
2022/10/07 06:26:58;;;;;;;0.20;0.20;;;;;;;6.80;100.00;102388.25;4980649;28;20072;-75
2022/10/07 06:29:23;;;;;;;0.20;0.20;;;;;;;6.90;100.00;102386.09;4974179;28;20480;-75
2022/10/07 06:31:48;;;;;;;0.10;0.10;;;;;;;6.98;100.00;102389.38;4981584;28;20432;-70
2022/10/07 06:34:14;;;;;;;0.20;0.20;;;;;;;6.95;100.00;102397.50;4979534;28;20042;-74
2022/10/07 06:36:39;;;;;;;0.75;0.25;;;;;;;7.15;100.00;102395.88;4983887;28;20477;-71
2022/10/07 06:39:04;;;;;;;0.20;0.20;;;;;;;7.06;100.00;102389.06;4981546;28;20041;-78
2022/10/07 06:41:30;;;;;;;0.10;0.10;;;;;;;7.13;100.00;102379.06;4989588;28;20393;-77
2022/10/07 06:43:56;;;;;;;0.17;0.17;;;;;;;7.47;100.00;102380.38;4982007;28;20034;-74
2022/10/07 06:46:21;;;;;;;0.17;0.17;;;;;;;7.22;100.00;102386.69;4980962;28;20484;-73
2022/10/07 06:48:46;;;;;;;0.13;0.13;;;;;;;7.23;100.00;102360.84;4985279;28;20038;-76
2022/10/07 06:51:17;;;;;;;0.20;0.20;;;;;;;7.43;100.00;102393.00;4983088;28;20117;-78
2022/10/07 06:53:43;;;;;;;0.20;0.20;;;;;;;7.25;100.00;102351.84;4980482;28;20439;-77
2022/10/07 06:56:10;;;;;;;0.20;0.20;;;;;;;7.44;100.00;102392.06;4989349;28;20818;-75
2022/10/07 06:58:36;;;;;;;0.10;0.10;;;;;;;7.44;100.00;102369.81;4990027;28;20058;-76
2022/10/07 07:01:01;;;;;;;0.20;0.20;;;;;;;7.67;100.00;102379.56;4981036;28;20113;-76
2022/10/07 07:03:28;;;;;;;0.20;0.20;;;;;;;7.72;100.00;102376.69;4981979;28;20026;-80
2022/10/07 07:05:53;;;;;;;0.30;0.30;;;;;;;7.91;100.00;102383.03;4975512;28;20030;-72
2022/10/07 07:08:20;;;;;;;0.17;0.17;;;;;;;7.94;100.00;102390.94;4978180;28;20519;-78
2022/10/07 07:10:45;;;;;;;0.30;0.30;;;;;;;8.03;100.00;102389.69;4984772;28;20117;-78
2022/10/07 07:13:11;;;;;;;0.17;0.17;;;;;;;8.15;100.00;102390.97;4982377;28;20483;-78
2022/10/07 07:15:38;;;;;;;0.10;0.10;;;;;;;8.19;100.00;102394.38;4978065;28;20023;-78
2022/10/07 07:18:05;;;;;;;0.20;0.20;;;;;;;8.43;100.00;102383.53;4980404;28;20034;-73
2022/10/07 07:20:36;;;;;;;0.20;0.20;;;;;;;8.31;100.00;102375.13;4979507;28;20030;-77
2022/10/07 07:23:05;;;;;;;0.20;0.20;;;;;;;8.69;100.00;102396.66;4974298;28;20069;-76
2022/10/07 07:25:34;;;;;;;0.20;0.20;;;;;;;8.77;100.00;102392.78;4972024;28;20031;-79
2022/10/07 07:28:00;;;;;;;0.13;0.13;;;;;;;8.78;100.00;102381.97;4974042;28;20076;-77
2022/10/07 07:30:27;;;;;;;0.10;0.10;;;;;;;8.93;100.00;102392.94;4974576;28;20423;-78
2022/10/07 07:32:52;;;;;;;0.10;0.10;;;;;;;9.09;100.00;102395.78;4971980;28;20062;-74
2022/10/07 07:35:17;;;;;;;0.10;0.10;;;;;;;9.14;100.00;102375.88;4971250;28;20141;-77
2022/10/07 07:37:43;;;;;;;0.10;0.10;;;;;;;9.40;100.00;102391.66;4976900;28;20030;-75
2022/10/07 07:40:08;;;;;;;0.20;0.20;;;;;;;9.48;100.00;102392.13;4973058;28;20722;-79
2022/10/07 07:42:34;;;;;;;0.10;0.10;;;;;;;9.49;100.00;102382.28;4969427;28;20392;-78
2022/10/07 07:44:59;;;;;;;0.10;0.10;;;;;;;9.58;100.00;102361.25;4977099;28;20469;-76
2022/10/07 07:47:26;;;;;;;0.10;0.10;;;;;;;9.68;100.00;102367.03;4972977;28;20082;-79
2022/10/07 07:49:51;;;;;;;0.20;0.20;;;;;;;9.90;100.00;102384.72;4976075;28;20350;-78
2022/10/07 07:52:17;;;;;;;0.10;0.10;;;;;;;10.05;100.00;102391.13;4971188;28;20033;-75
2022/10/07 07:54:42;;;;;;;0.10;0.10;;;;;;;10.05;100.00;102369.66;4975637;28;20125;-77
2022/10/07 07:57:08;;;;;;;0.20;0.20;;;;;;;10.35;100.00;102387.81;4987393;28;20030;-78
2022/10/07 07:59:33;;;;;;;0.10;0.10;;;;;;;10.44;100.00;102387.38;4953935;28;20027;-78
2022/10/07 08:01:59;;;;;;;0.10;0.10;;;;;;;10.50;99.69;102368.25;4983013;28;20026;-79
2022/10/07 08:04:24;;;;;;;0.10;0.10;;;;;;;10.75;100.00;102382.19;4971725;28;20026;-77
2022/10/07 08:06:50;;;;;;;0.20;0.20;;;;;;;10.78;99.96;102363.22;4957167;28;20030;-78
2022/10/07 08:09:16;;;;;;;0.10;0.10;;;;;;;10.87;98.57;102381.50;4990747;28;20049;-78
2022/10/07 08:11:44;;;;;;;0.15;0.15;;;;;;;11.02;99.67;102378.94;4973042;28;20026;-78
2022/10/07 08:14:14;;;;;;;0.10;0.10;;;;;;;11.10;98.51;102376.72;4974302;28;20106;-77
2022/10/07 08:16:39;;;;;;;0.10;0.10;;;;;;;11.14;97.10;102353.19;4973832;28;20551;-79
2022/10/07 08:19:04;;;;;;;0.10;0.10;;;;;;;11.21;95.16;102354.59;4975110;28;20039;-76
2022/10/07 08:21:33;;;;;;;0.10;0.10;;;;;;;11.32;94.70;102370.13;4968883;28;20473;-77
2022/10/07 08:24:00;;;;;;;0.10;0.10;;;;;;;11.39;94.14;102337.41;4974654;28;20022;-77
2022/10/07 08:26:27;;;;;;;0.10;0.10;;;;;;;11.49;96.02;102345.81;4991506;28;20415;-77
2022/10/07 08:28:53;;;;;;;0.10;0.10;;;;;;;11.74;94.07;102362.34;4981984;28;20058;-77
2022/10/07 08:31:19;;;;;;;0.10;0.10;;;;;;;11.28;94.10;102277.13;4973586;28;20037;-74
2022/10/07 08:33:46;;;;;;;0.10;0.10;;;;;;;12.05;93.00;102363.28;4976402;28;20523;-76
2022/10/07 08:36:17;;;;;;;0.10;0.10;;;;;;;12.10;94.29;102361.16;4974810;28;20030;-77
2022/10/07 08:38:43;;;;;;;0.20;0.20;;;;;;;12.17;92.25;102335.59;4976176;28;20483;-76
2022/10/07 08:41:08;;;;;;;0.10;0.10;;;;;;;12.06;92.15;102365.84;4978604;28;20113;-76
2022/10/07 08:43:36;;;;;;;0.20;0.20;;;;;;;12.04;93.77;102342.69;4972021;28;20022;-77
2022/10/07 08:46:03;;;;;;;0.10;0.10;;;;;;;12.28;93.45;102362.75;4976767;28;20673;-74
2022/10/07 08:48:31;;;;;;;0.20;0.20;;;;;;;12.38;92.13;102356.78;4976180;28;20497;-74
2022/10/07 08:50:56;;;;;;;0.10;0.10;;;;;;;12.39;90.78;102361.19;4975621;28;20034;-77
2022/10/07 08:53:32;;;;;;;0.10;0.10;;;;;;;12.51;91.16;102341.59;4970207;28;20365;-79
2022/10/07 08:56:17;;;;;;;0.10;0.10;;;;;;;12.78;88.92;102346.22;4976167;28;20322;-71
2022/10/07 08:58:53;;;;;;;0.10;0.10;;;;;;;12.79;90.81;102334.47;4978231;28;20061;-80
2022/10/07 09:01:53;;;;;;;0.20;0.20;;;;;;;12.89;89.35;102334.75;4980682;28;20033;-75
2022/10/07 09:04:24;;;;;;;0.10;0.10;;;;;;;12.93;88.32;102322.81;4958126;28;20033;-74
2022/10/07 09:07:06;;;;;;;0.10;0.10;;;;;;;13.33;87.26;102327.44;4993390;28;20034;-72
2022/10/07 09:09:43;;;;;;;0.10;0.10;;;;;;;13.36;85.19;102329.94;4969744;28;20030;-74
2022/10/07 09:12:21;;;;;;;0.13;0.13;;;;;;;13.18;84.49;102335.56;4961574;28;20479;-74
2022/10/07 09:14:48;;;;;;;0.10;0.10;;;;;;;13.58;83.62;102331.25;4969115;28;20031;-69
2022/10/07 09:17:37;;;;;;;0.10;0.10;;;;;;;13.56;83.29;102325.94;4973867;28;20026;-72
2022/10/07 09:20:15;;;;;;;0.10;0.10;;;;;;;14.17;84.50;102324.56;4973527;28;20034;-74
2022/10/07 09:22:41;;;;;;;0.10;0.10;;;;;;;14.16;83.06;102318.28;4975878;28;20396;-75
2022/10/07 09:25:09;;;;;;;0.20;0.20;;;;;;;14.04;80.07;102314.59;4973177;28;20026;-72
2022/10/07 09:27:35;;;;;;;0.20;0.20;;;;;;;14.12;81.86;102318.63;4973655;28;21014;-74
2022/10/07 09:30:00;;;;;;;0.08;0.08;;;;;;;14.18;80.76;102319.03;4980121;28;20626;-73
2022/10/07 09:32:25;;;;;;;0.15;0.15;;;;;;;14.21;82.39;102294.53;4965902;28;20038;-81
2022/10/07 09:34:51;;;;;;;0.10;0.10;;;;;;;14.38;79.70;102308.66;4973811;28;21206;-76
2022/10/07 09:37:22;;;;;;;0.10;0.10;;;;;;;14.41;79.77;102292.25;4980413;28;20027;-75
2022/10/07 09:39:53;;;;;;;0.10;0.10;;;;;;;14.38;80.10;102308.66;4986048;28;20030;-73
2022/10/07 09:42:37;;;;;;;0.10;0.10;;;;;;;14.80;78.52;102306.59;4982992;28;20030;-76
2022/10/07 09:45:18;;;;;;;0.10;0.10;;;;;;;14.87;76.59;102274.56;4979544;28;20025;-79
2022/10/07 09:47:43;;;;;;;0.10;0.10;;;;;;;14.93;77.13;102282.25;4977267;28;20124;-76
2022/10/07 09:50:32;;;;;;;0.10;0.10;;;;;;;14.64;74.89;102274.38;4978089;28;20026;-77
2022/10/07 09:52:58;;;;;;;0.10;0.10;;;;;;;15.14;76.33;102287.03;4976764;28;20030;-76
2022/10/07 09:55:39;;;;;;;0.00;0.00;;;;;;;15.21;76.33;102277.50;4992706;28;20729;-76
2022/10/07 09:58:15;;;;;;;0.00;0.00;;;;;;;15.30;75.43;102274.06;4957432;28;20018;-76
2022/10/07 10:00:43;;;;;;;0.10;0.10;;;;;;;15.23;74.14;102261.13;4962570;28;20037;-74
2022/10/07 10:03:08;;;;;;;0.10;0.10;;;;;;;15.41;74.39;102265.13;4967777;28;20156;-75
2022/10/07 10:05:36;;;;;;;0.10;0.10;;;;;;;15.65;75.83;102263.38;4983316;28;20026;-76
2022/10/07 10:08:17;;;;;;;0.10;0.10;;;;;;;15.49;72.31;102248.34;4977410;28;20026;-76
2022/10/07 10:10:50;;;;;;;0.10;0.10;;;;;;;15.91;73.51;102255.97;4981873;28;20029;-75
2022/10/07 10:13:30;;;;;;;0.10;0.10;;;;;;;16.10;71.89;102274.34;4972833;28;20061;-77
2022/10/07 10:15:56;;;;;;;0.10;0.10;;;;;;;16.70;70.68;102267.81;4980481;28;20064;-75
2022/10/07 10:18:39;;;;;;;0.00;0.00;;;;;;;16.47;68.63;102240.72;4976991;28;20125;-75
2022/10/07 10:21:18;;;;;;;0.10;0.10;;;;;;;16.53;70.14;102256.50;4977554;28;20114;-75
2022/10/07 10:23:46;;;;;;;0.10;0.10;;;;;;;16.35;69.58;102256.13;4975965;28;20038;-74
2022/10/07 10:26:26;;;;;;;0.10;0.10;;;;;;;17.07;68.80;102259.41;4977097;28;20045;-77
2022/10/07 10:29:04;;;;;;;0.10;0.10;;;;;;;16.44;67.25;102252.69;4982645;28;20034;-80
2022/10/07 10:31:52;;;;;;;0.10;0.10;;;;;;;16.91;68.13;102236.25;4983802;28;20029;-73
2022/10/07 10:35:01;;;;;;;0.10;0.10;;;;;;;16.92;65.88;102229.84;4976511;28;20030;-75
2022/10/07 10:37:51;;;;;;;0.10;0.10;;;;;;;16.33;67.58;102225.59;4980757;28;20122;-73
2022/10/07 10:40:37;;;;;;;0.08;0.08;;;;;;;16.94;67.18;102226.97;4984431;28;20117;-76
2022/10/07 10:43:27;;;;;;;0.05;0.05;;;;;;;18.02;63.46;102227.84;4981671;28;20587;-74
2022/10/07 10:45:59;;;;;;;0.10;0.10;;;;;;;18.25;63.49;102230.41;4973281;28;20047;-75
2022/10/07 10:48:37;;;;;;;0.10;0.10;;;;;;;18.00;61.79;102208.13;4985761;28;20030;-76
2022/10/07 10:51:33;;;;;;;0.00;0.00;;;;;;;17.98;61.55;102221.81;4981695;28;20026;-78
2022/10/07 10:54:16;;;;;;;0.10;0.10;;;;;;;17.63;59.36;102171.41;4981757;28;20034;-73
2022/10/07 10:56:57;;;;;;;0.00;0.00;;;;;;;17.86;60.42;102209.31;4979680;28;20030;-76
2022/10/07 11:00:01;;;;;;;0.00;0.00;;;;;;;17.99;58.84;102203.69;4978163;28;20073;-78
2022/10/07 11:02:36;;;;;;;0.10;0.10;;;;;;;19.24;58.02;102193.38;4980792;28;20035;-78
2022/10/07 11:05:12;;;;;;;0.08;0.08;;;;;;;19.28;57.95;102184.81;4980319;28;20034;-76
2022/10/07 11:07:55;;;;;;;0.10;0.10;;;;;;;19.91;54.18;102185.28;4975749;28;20134;-75
2022/10/07 11:10:26;;;;;;;0.10;0.10;;;;;;;19.01;55.15;102183.66;4972341;28;20032;-77
2022/10/07 11:13:22;;;;;;;0.10;0.10;;;;;;;18.66;52.72;102178.72;4978760;28;20049;-77
2022/10/07 11:16:16;;;;;;;0.10;0.10;;;;;;;19.57;53.52;102174.88;4981022;28;20037;-75
2022/10/07 11:18:55;;;;;;;0.10;0.10;;;;;;;20.49;49.49;102175.97;4977367;28;20041;-78
2022/10/07 11:21:26;;;;;;;0.10;0.10;;;;;;;20.93;49.16;102163.47;4961318;28;20037;-75
2022/10/07 11:24:20;;;;;;;0.10;0.10;;;;;;;20.82;48.09;102159.09;4971545;28;20074;-76
2022/10/07 11:26:56;;;;;;;0.08;0.08;;;;;;;20.57;48.92;102171.63;4984780;28;20398;-79
2022/10/07 11:29:49;;;;;;;0.10;0.10;;;;;;;20.30;49.70;102154.25;4971890;28;20767;-74
2022/10/07 11:32:27;;;;;;;0.10;0.10;;;;;;;20.94;48.00;102151.53;4973968;28;20033;-78
2022/10/07 11:34:58;;;;;;;0.00;0.00;;;;;;;21.63;46.53;102146.31;4980360;28;20026;-75
2022/10/07 11:37:28;;;;;;;0.00;0.00;;;;;;;20.56;48.08;102118.91;4980235;28;20472;-81
2022/10/07 11:39:53;;;;;;;0.00;0.00;;;;;;;19.48;48.03;102124.84;4978233;28;20033;-72
2022/10/07 11:42:22;;;;;;;0.00;0.00;;;;;;;19.47;48.74;102131.31;4973069;28;20049;-75
2022/10/07 11:45:08;;;;;;;0.10;0.10;;;;;;;20.15;47.37;102113.84;4979757;28;20038;-76